LGL847 ELLX-LFML
Flight info
| Callsign | LGL847 |
|---|---|
| Flight time | 1h 27m |
| Altitude | 23000 |
| Route | GTQ A242 POGOL DCT LASAT DCT MOROK DCT GILIR DCT GEVEA DCT INCUS DCT BALSI |
| Aircraft | DH8D/M-SDE2E3FGRY/H |
Departure
| Time | 2026-05-04 11:17 |
|---|---|
| Airport | Luxembourg-Findel International Airport (ELLX) |
Arrival
| Time | 2026-05-04 12:44 |
|---|---|
| Airport | Marseille Provence Airport (LFML) |
| Time | Latitude | Longitude | Altitude | Speed | Heading |
|---|---|---|---|---|---|
| 2026-05-04 10:02 | 49.63195 | 6.21637 | 1230 ft | 0 kts | 60° |
| 2026-05-04 11:10 | 49.63192 | 6.21728 | 1229 ft | 0 kts | 150° |
| 2026-05-04 11:12 | 49.63149 | 6.21765 | 1228 ft | 6 kts | 151° |
| 2026-05-04 11:12 | 49.63131 | 6.21824 | 1227 ft | 8 kts | 68° |
| 2026-05-04 11:12 | 49.63164 | 6.21924 | 1226 ft | 12 kts | 64° |
| 2026-05-04 11:12 | 49.63202 | 6.22049 | 1224 ft | 12 kts | 65° |
| 2026-05-04 11:13 | 49.63239 | 6.22169 | 1223 ft | 12 kts | 64° |
| 2026-05-04 11:13 | 49.63274 | 6.22283 | 1222 ft | 11 kts | 64° |
| 2026-05-04 11:13 | 49.63310 | 6.22399 | 1221 ft | 11 kts | 64° |
| 2026-05-04 11:13 | 49.63348 | 6.22512 | 1221 ft | 13 kts | 60° |
| 2026-05-04 11:14 | 49.63393 | 6.22636 | 1221 ft | 12 kts | 60° |
| 2026-05-04 11:14 | 49.63435 | 6.22748 | 1221 ft | 11 kts | 60° |
| 2026-05-04 11:14 | 49.63474 | 6.22855 | 1221 ft | 12 kts | 60° |
| 2026-05-04 11:16 | 49.63507 | 6.23471 | 1219 ft | 11 kts | 240° |
| 2026-05-04 11:16 | 49.63351 | 6.23048 | 1220 ft | 88 kts | 239° |
| 2026-05-04 11:16 | 49.62925 | 6.21906 | 1228 ft | 151 kts | 239° |
| 2026-05-04 11:17 | 49.62409 | 6.20444 | 1692 ft | 156 kts | 239° |
| 2026-05-04 11:17 | 49.61913 | 6.18999 | 2410 ft | 151 kts | 240° |
| 2026-05-04 11:19 | 49.57090 | 6.11338 | 5858 ft | 185 kts | 140° |
| 2026-05-04 11:19 | 49.56237 | 6.12856 | 6434 ft | 188 kts | 135° |
| 2026-05-04 11:19 | 49.55245 | 6.14084 | 6993 ft | 186 kts | 149° |
| 2026-05-04 11:19 | 49.54161 | 6.15152 | 7592 ft | 186 kts | 150° |
| 2026-05-04 11:20 | 49.53083 | 6.16222 | 8146 ft | 187 kts | 150° |
| 2026-05-04 11:20 | 49.51998 | 6.17310 | 8713 ft | 188 kts | 150° |
| 2026-05-04 11:20 | 49.50910 | 6.18408 | 9247 ft | 189 kts | 150° |
| 2026-05-04 11:20 | 49.49812 | 6.19523 | 9793 ft | 190 kts | 150° |
| 2026-05-04 11:22 | 49.41901 | 6.27616 | 13113 ft | 202 kts | 150° |
| 2026-05-04 11:22 | 49.40728 | 6.28820 | 13501 ft | 206 kts | 150° |
| 2026-05-04 11:23 | 49.39551 | 6.30027 | 13910 ft | 206 kts | 150° |
| 2026-05-04 11:23 | 49.38348 | 6.31262 | 14307 ft | 207 kts | 151° |
| 2026-05-04 11:24 | 49.31016 | 6.38765 | 16365 ft | 216 kts | 151° |
| 2026-05-04 11:25 | 49.29768 | 6.40038 | 16712 ft | 217 kts | 151° |
| 2026-05-04 11:25 | 49.28502 | 6.41329 | 17014 ft | 220 kts | 151° |
| 2026-05-04 11:25 | 49.27243 | 6.42615 | 17344 ft | 220 kts | 151° |
| 2026-05-04 11:26 | 49.24678 | 6.45227 | 17925 ft | 223 kts | 151° |
| 2026-05-04 11:27 | 49.15522 | 6.54528 | 19880 ft | 229 kts | 152° |
| 2026-05-04 11:28 | 49.14190 | 6.55878 | 20138 ft | 230 kts | 152° |
| 2026-05-04 11:28 | 49.12849 | 6.57230 | 20389 ft | 231 kts | 153° |
| 2026-05-04 11:28 | 49.11395 | 6.58090 | 20574 ft | 224 kts | 176° |
| 2026-05-04 11:28 | 49.09866 | 6.58222 | 20779 ft | 223 kts | 181° |
| 2026-05-04 11:29 | 49.08318 | 6.58293 | 21018 ft | 223 kts | 181° |
| 2026-05-04 11:29 | 49.06765 | 6.58362 | 21235 ft | 223 kts | 181° |
| 2026-05-04 11:29 | 49.05010 | 6.58439 | 21465 ft | 224 kts | 181° |
| 2026-05-04 11:29 | 49.01859 | 6.58577 | 21831 ft | 225 kts | 181° |
| 2026-05-04 11:31 | 48.90845 | 6.59065 | 22973 ft | 228 kts | 181° |
| 2026-05-04 11:33 | 48.78809 | 6.59588 | 23001 ft | 276 kts | 180° |
| 2026-05-04 11:33 | 48.76859 | 6.59674 | 22997 ft | 283 kts | 180° |
| 2026-05-04 11:33 | 48.74900 | 6.59760 | 22996 ft | 287 kts | 180° |
| 2026-05-04 11:34 | 48.72887 | 6.59850 | 23001 ft | 290 kts | 180° |
| 2026-05-04 11:34 | 48.70847 | 6.59941 | 22993 ft | 294 kts | 180° |
| 2026-05-04 11:34 | 48.68787 | 6.60032 | 22999 ft | 297 kts | 180° |
| 2026-05-04 11:34 | 48.66714 | 6.60123 | 22996 ft | 300 kts | 180° |
| 2026-05-04 11:35 | 48.64641 | 6.60130 | 22988 ft | 302 kts | 185° |
| 2026-05-04 11:35 | 48.62568 | 6.59719 | 22994 ft | 303 kts | 190° |
| 2026-05-04 11:35 | 48.60469 | 6.59211 | 22993 ft | 305 kts | 190° |
| 2026-05-04 11:35 | 48.58373 | 6.58706 | 22996 ft | 306 kts | 190° |
| 2026-05-04 11:36 | 48.56270 | 6.58200 | 22993 ft | 307 kts | 190° |
| 2026-05-04 11:36 | 48.54162 | 6.57698 | 22995 ft | 308 kts | 190° |
| 2026-05-04 11:36 | 48.52073 | 6.57201 | 22988 ft | 309 kts | 190° |
| 2026-05-04 11:36 | 48.49927 | 6.56692 | 22993 ft | 310 kts | 190° |
| 2026-05-04 11:37 | 48.47810 | 6.56193 | 22986 ft | 310 kts | 190° |
| 2026-05-04 11:37 | 48.45682 | 6.55691 | 22987 ft | 310 kts | 190° |
| 2026-05-04 11:37 | 48.43550 | 6.55191 | 22987 ft | 311 kts | 190° |
| 2026-05-04 11:37 | 48.41413 | 6.54689 | 22991 ft | 312 kts | 190° |
| 2026-05-04 11:38 | 48.39282 | 6.54189 | 22989 ft | 313 kts | 189° |
| 2026-05-04 11:38 | 48.37119 | 6.53683 | 22987 ft | 312 kts | 190° |
| 2026-05-04 11:38 | 48.34993 | 6.53186 | 22985 ft | 312 kts | 189° |
| 2026-05-04 11:38 | 48.32856 | 6.52687 | 22993 ft | 312 kts | 190° |
| 2026-05-04 11:39 | 48.30691 | 6.52183 | 22990 ft | 311 kts | 190° |
| 2026-05-04 11:39 | 48.28572 | 6.51689 | 22988 ft | 311 kts | 190° |
| 2026-05-04 11:40 | 48.15722 | 6.48702 | 22990 ft | 312 kts | 189° |
| 2026-05-04 11:41 | 48.13588 | 6.48208 | 22981 ft | 312 kts | 190° |
| 2026-05-04 11:41 | 48.11462 | 6.47715 | 22987 ft | 313 kts | 189° |
| 2026-05-04 11:41 | 48.09310 | 6.47218 | 23002 ft | 313 kts | 189° |
| 2026-05-04 11:41 | 48.07150 | 6.46718 | 23002 ft | 313 kts | 189° |
| 2026-05-04 11:42 | 48.05007 | 6.46224 | 23001 ft | 313 kts | 189° |
| 2026-05-04 11:42 | 48.02877 | 6.45733 | 23000 ft | 313 kts | 189° |
| 2026-05-04 11:42 | 48.00722 | 6.45237 | 23008 ft | 313 kts | 189° |
| 2026-05-04 11:42 | 47.98550 | 6.44737 | 23004 ft | 314 kts | 189° |
| 2026-05-04 11:43 | 47.96411 | 6.44244 | 23009 ft | 314 kts | 190° |
| 2026-05-04 11:43 | 47.94253 | 6.43749 | 23008 ft | 314 kts | 190° |
| 2026-05-04 11:43 | 47.92111 | 6.43255 | 23005 ft | 314 kts | 190° |
| 2026-05-04 11:43 | 47.89957 | 6.42761 | 23010 ft | 314 kts | 190° |
| 2026-05-04 11:44 | 47.87772 | 6.42260 | 23016 ft | 314 kts | 190° |
| 2026-05-04 11:44 | 47.85615 | 6.41766 | 23017 ft | 314 kts | 190° |
| 2026-05-04 11:44 | 47.83483 | 6.41279 | 23021 ft | 314 kts | 189° |
| 2026-05-04 11:44 | 47.81302 | 6.40779 | 23020 ft | 314 kts | 190° |
| 2026-05-04 11:45 | 47.79172 | 6.40291 | 23013 ft | 313 kts | 190° |
| 2026-05-04 11:45 | 47.77007 | 6.39798 | 23013 ft | 313 kts | 190° |
| 2026-05-04 11:45 | 47.74875 | 6.39312 | 23021 ft | 313 kts | 189° |
| 2026-05-04 11:45 | 47.72727 | 6.38822 | 23013 ft | 313 kts | 190° |
| 2026-05-04 11:46 | 47.70549 | 6.38324 | 23011 ft | 314 kts | 190° |
| 2026-05-04 11:46 | 47.68403 | 6.37837 | 23005 ft | 314 kts | 190° |
| 2026-05-04 11:46 | 47.66236 | 6.37345 | 23008 ft | 315 kts | 190° |
| 2026-05-04 11:46 | 47.64099 | 6.36859 | 23002 ft | 315 kts | 190° |
| 2026-05-04 11:47 | 47.61939 | 6.36368 | 22998 ft | 315 kts | 190° |
| 2026-05-04 11:47 | 47.59767 | 6.35866 | 22950 ft | 316 kts | 190° |
| 2026-05-04 11:47 | 47.57593 | 6.35323 | 22925 ft | 317 kts | 191° |
| 2026-05-04 11:47 | 47.55425 | 6.34689 | 22961 ft | 315 kts | 193° |
| 2026-05-04 11:48 | 47.53323 | 6.33915 | 22984 ft | 314 kts | 196° |
| 2026-05-04 11:48 | 47.51221 | 6.33100 | 22975 ft | 315 kts | 192° |
| 2026-05-04 11:48 | 47.49018 | 6.32720 | 22961 ft | 315 kts | 187° |
| 2026-05-04 11:48 | 47.46867 | 6.32418 | 23005 ft | 314 kts | 187° |
| 2026-05-04 11:49 | 47.44676 | 6.32065 | 22999 ft | 313 kts | 188° |
| 2026-05-04 11:49 | 47.42529 | 6.31689 | 23002 ft | 314 kts | 189° |
| 2026-05-04 11:49 | 47.40376 | 6.31279 | 22991 ft | 314 kts | 188° |
| 2026-05-04 11:49 | 47.38185 | 6.30843 | 22998 ft | 315 kts | 189° |
| 2026-05-04 11:50 | 47.36039 | 6.30402 | 23019 ft | 314 kts | 190° |
| 2026-05-04 11:50 | 47.33867 | 6.29945 | 23008 ft | 314 kts | 189° |
| 2026-05-04 11:50 | 47.31708 | 6.29483 | 23004 ft | 315 kts | 190° |
| 2026-05-04 11:50 | 47.29540 | 6.29014 | 23004 ft | 315 kts | 190° |
| 2026-05-04 11:51 | 47.27369 | 6.28540 | 23004 ft | 315 kts | 190° |
| 2026-05-04 11:51 | 47.25201 | 6.28064 | 23000 ft | 315 kts | 190° |
| 2026-05-04 11:51 | 47.23026 | 6.27584 | 23001 ft | 314 kts | 190° |
| 2026-05-04 11:51 | 47.20889 | 6.27112 | 23006 ft | 314 kts | 190° |
| 2026-05-04 11:52 | 47.18726 | 6.26633 | 23008 ft | 314 kts | 190° |
| 2026-05-04 11:52 | 47.16575 | 6.26156 | 23004 ft | 313 kts | 190° |
| 2026-05-04 11:52 | 47.14411 | 6.25676 | 23007 ft | 312 kts | 190° |
| 2026-05-04 11:52 | 47.12261 | 6.25197 | 22995 ft | 312 kts | 190° |
| 2026-05-04 11:53 | 47.10123 | 6.24725 | 23005 ft | 312 kts | 190° |
| 2026-05-04 11:53 | 47.07983 | 6.24248 | 23003 ft | 312 kts | 190° |
| 2026-05-04 11:53 | 47.05853 | 6.23779 | 23013 ft | 311 kts | 190° |
| 2026-05-04 11:53 | 47.03697 | 6.23438 | 22999 ft | 312 kts | 187° |
| 2026-05-04 11:55 | 46.88564 | 6.21500 | 23010 ft | 312 kts | 187° |
| 2026-05-04 11:55 | 46.86407 | 6.21217 | 23013 ft | 311 kts | 187° |
| 2026-05-04 11:56 | 46.84237 | 6.20927 | 23007 ft | 313 kts | 187° |
| 2026-05-04 11:56 | 46.82070 | 6.20640 | 23010 ft | 313 kts | 187° |
| 2026-05-04 11:56 | 46.79898 | 6.20353 | 23013 ft | 314 kts | 187° |
| 2026-05-04 11:56 | 46.77757 | 6.20069 | 23018 ft | 314 kts | 187° |
| 2026-05-04 11:57 | 46.75574 | 6.19780 | 23013 ft | 314 kts | 187° |
| 2026-05-04 11:57 | 46.73393 | 6.19491 | 23014 ft | 314 kts | 186° |
| 2026-05-04 11:57 | 46.71205 | 6.19205 | 23018 ft | 314 kts | 187° |
| 2026-05-04 11:57 | 46.69038 | 6.18916 | 22975 ft | 314 kts | 187° |
| 2026-05-04 11:58 | 46.66879 | 6.18634 | 23003 ft | 314 kts | 187° |
| 2026-05-04 11:58 | 46.64712 | 6.18347 | 23025 ft | 313 kts | 187° |
| 2026-05-04 11:58 | 46.62537 | 6.18057 | 23015 ft | 314 kts | 187° |
| 2026-05-04 11:58 | 46.60355 | 6.17767 | 23005 ft | 314 kts | 187° |
| 2026-05-04 11:59 | 46.58201 | 6.17485 | 22993 ft | 315 kts | 187° |
| 2026-05-04 11:59 | 46.56014 | 6.17198 | 22999 ft | 315 kts | 187° |
| 2026-05-04 11:59 | 46.53842 | 6.16914 | 23001 ft | 315 kts | 187° |
| 2026-05-04 11:59 | 46.51645 | 6.16624 | 23019 ft | 315 kts | 187° |
| 2026-05-04 12:00 | 46.49464 | 6.16336 | 23013 ft | 315 kts | 187° |
| 2026-05-04 12:00 | 46.47295 | 6.16052 | 23019 ft | 315 kts | 187° |
| 2026-05-04 12:00 | 46.45088 | 6.15763 | 22981 ft | 316 kts | 186° |
| 2026-05-04 12:00 | 46.42919 | 6.15451 | 22996 ft | 315 kts | 188° |
| 2026-05-04 12:01 | 46.40753 | 6.15017 | 23003 ft | 315 kts | 190° |
| 2026-05-04 12:01 | 46.38583 | 6.14559 | 23030 ft | 315 kts | 190° |
| 2026-05-04 12:02 | 46.25594 | 6.11855 | 23007 ft | 315 kts | 189° |
| 2026-05-04 12:03 | 46.23407 | 6.11404 | 23025 ft | 315 kts | 189° |
| 2026-05-04 12:03 | 46.21252 | 6.10960 | 23034 ft | 315 kts | 189° |
| 2026-05-04 12:03 | 46.19073 | 6.10509 | 23014 ft | 315 kts | 189° |
| 2026-05-04 12:03 | 46.16933 | 6.10066 | 23053 ft | 313 kts | 189° |
| 2026-05-04 12:04 | 46.14772 | 6.09625 | 23056 ft | 313 kts | 189° |
| 2026-05-04 12:04 | 46.12614 | 6.09185 | 22985 ft | 315 kts | 189° |
| 2026-05-04 12:04 | 46.10442 | 6.08735 | 23068 ft | 314 kts | 189° |
| 2026-05-04 12:04 | 46.08259 | 6.08288 | 23071 ft | 313 kts | 189° |
| 2026-05-04 12:05 | 46.06120 | 6.07852 | 22982 ft | 316 kts | 189° |
| 2026-05-04 12:05 | 46.03966 | 6.07418 | 23026 ft | 315 kts | 189° |
| 2026-05-04 12:05 | 46.01790 | 6.06972 | 23066 ft | 314 kts | 189° |
| 2026-05-04 12:05 | 45.99616 | 6.06531 | 23024 ft | 315 kts | 189° |
| 2026-05-04 12:06 | 45.97442 | 6.06083 | 22981 ft | 317 kts | 189° |
| 2026-05-04 12:06 | 45.95298 | 6.05648 | 23052 ft | 314 kts | 189° |
| 2026-05-04 12:06 | 45.93145 | 6.05080 | 23042 ft | 312 kts | 198° |
| 2026-05-04 12:06 | 45.91163 | 6.03828 | 23051 ft | 312 kts | 207° |
| 2026-05-04 12:07 | 45.89236 | 6.02388 | 23016 ft | 312 kts | 207° |
| 2026-05-04 12:07 | 45.87305 | 6.00930 | 23041 ft | 314 kts | 207° |
| 2026-05-04 12:07 | 45.85387 | 5.99470 | 23041 ft | 313 kts | 208° |
| 2026-05-04 12:07 | 45.83463 | 5.98014 | 23012 ft | 316 kts | 207° |
| 2026-05-04 12:08 | 45.81503 | 5.96534 | 23025 ft | 317 kts | 207° |
| 2026-05-04 12:08 | 45.79559 | 5.95066 | 23031 ft | 318 kts | 207° |
| 2026-05-04 12:08 | 45.77619 | 5.93601 | 23038 ft | 318 kts | 207° |
| 2026-05-04 12:08 | 45.75649 | 5.92117 | 23013 ft | 319 kts | 207° |
| 2026-05-04 12:09 | 45.73680 | 5.90634 | 23018 ft | 319 kts | 207° |
| 2026-05-04 12:09 | 45.71726 | 5.89159 | 23024 ft | 319 kts | 207° |
| 2026-05-04 12:09 | 45.69757 | 5.87683 | 23036 ft | 319 kts | 208° |
| 2026-05-04 12:09 | 45.67791 | 5.86201 | 22996 ft | 320 kts | 206° |
| 2026-05-04 12:10 | 45.65840 | 5.84732 | 23070 ft | 318 kts | 208° |
| 2026-05-04 12:10 | 45.63883 | 5.83268 | 23047 ft | 319 kts | 207° |
| 2026-05-04 12:10 | 45.61917 | 5.81798 | 23035 ft | 319 kts | 207° |
| 2026-05-04 12:10 | 45.60057 | 5.80101 | 23044 ft | 319 kts | 214° |
| 2026-05-04 12:11 | 45.58261 | 5.78222 | 23038 ft | 320 kts | 215° |
| 2026-05-04 12:11 | 45.56474 | 5.76339 | 23040 ft | 320 kts | 215° |
| 2026-05-04 12:11 | 45.54687 | 5.74458 | 23047 ft | 320 kts | 215° |
| 2026-05-04 12:11 | 45.52898 | 5.72584 | 23029 ft | 320 kts | 215° |
| 2026-05-04 12:12 | 45.51107 | 5.70709 | 23065 ft | 320 kts | 215° |
| 2026-05-04 12:12 | 45.49305 | 5.68818 | 23001 ft | 321 kts | 213° |
| 2026-05-04 12:12 | 45.47501 | 5.66932 | 23020 ft | 321 kts | 214° |
| 2026-05-04 12:12 | 45.45716 | 5.65063 | 23062 ft | 318 kts | 215° |
| 2026-05-04 12:13 | 45.43943 | 5.63214 | 23040 ft | 319 kts | 215° |
| 2026-05-04 12:14 | 45.31505 | 5.50280 | 23027 ft | 316 kts | 214° |
| 2026-05-04 12:15 | 45.29738 | 5.48454 | 23008 ft | 315 kts | 215° |
| 2026-05-04 12:15 | 45.27964 | 5.46621 | 23030 ft | 315 kts | 214° |
| 2026-05-04 12:15 | 45.26193 | 5.44793 | 23034 ft | 315 kts | 215° |
| 2026-05-04 12:15 | 45.24433 | 5.42974 | 23049 ft | 314 kts | 214° |
| 2026-05-04 12:16 | 45.22659 | 5.41139 | 23038 ft | 315 kts | 215° |
| 2026-05-04 12:16 | 45.20895 | 5.39322 | 23042 ft | 315 kts | 215° |
| 2026-05-04 12:16 | 45.19104 | 5.37477 | 23047 ft | 315 kts | 215° |
| 2026-05-04 12:16 | 45.17341 | 5.35660 | 23045 ft | 316 kts | 215° |
| 2026-05-04 12:17 | 45.15570 | 5.33839 | 23035 ft | 317 kts | 214° |
| 2026-05-04 12:17 | 45.13776 | 5.31993 | 23039 ft | 317 kts | 214° |
| 2026-05-04 12:17 | 45.11995 | 5.30163 | 23035 ft | 318 kts | 214° |
| 2026-05-04 12:17 | 45.10192 | 5.28313 | 23026 ft | 318 kts | 214° |
| 2026-05-04 12:18 | 45.08414 | 5.26488 | 23026 ft | 318 kts | 214° |
| 2026-05-04 12:18 | 45.06619 | 5.24648 | 23027 ft | 318 kts | 214° |
| 2026-05-04 12:18 | 45.04833 | 5.22819 | 23035 ft | 318 kts | 214° |
| 2026-05-04 12:18 | 45.03047 | 5.20990 | 23038 ft | 318 kts | 214° |
| 2026-05-04 12:19 | 45.01248 | 5.19150 | 23033 ft | 319 kts | 214° |
| 2026-05-04 12:19 | 44.99452 | 5.17316 | 23031 ft | 319 kts | 214° |
| 2026-05-04 12:19 | 44.97656 | 5.15481 | 23031 ft | 319 kts | 214° |
| 2026-05-04 12:19 | 44.95864 | 5.13653 | 23026 ft | 320 kts | 214° |
| 2026-05-04 12:20 | 44.94040 | 5.11793 | 23028 ft | 320 kts | 214° |
| 2026-05-04 12:20 | 44.92235 | 5.09954 | 23026 ft | 320 kts | 214° |
| 2026-05-04 12:20 | 44.90436 | 5.08124 | 23030 ft | 320 kts | 214° |
| 2026-05-04 12:20 | 44.88672 | 5.06330 | 23035 ft | 320 kts | 214° |
| 2026-05-04 12:21 | 44.86814 | 5.04442 | 23036 ft | 320 kts | 214° |
| 2026-05-04 12:21 | 44.84992 | 5.02592 | 23033 ft | 320 kts | 214° |
| 2026-05-04 12:21 | 44.83173 | 5.00747 | 23032 ft | 321 kts | 215° |
| 2026-05-04 12:21 | 44.81359 | 4.98907 | 23031 ft | 321 kts | 214° |
| 2026-05-04 12:22 | 44.79556 | 4.97078 | 23027 ft | 321 kts | 215° |
| 2026-05-04 12:22 | 44.77724 | 4.95231 | 23005 ft | 321 kts | 216° |
| 2026-05-04 12:22 | 44.75922 | 4.93401 | 22788 ft | 323 kts | 214° |
| 2026-05-04 12:22 | 44.74094 | 4.91560 | 22375 ft | 327 kts | 215° |
| 2026-05-04 12:23 | 44.72205 | 4.89761 | 21927 ft | 326 kts | 210° |
| 2026-05-04 12:23 | 44.70217 | 4.88294 | 21556 ft | 321 kts | 207° |
| 2026-05-04 12:23 | 44.68247 | 4.86911 | 21222 ft | 317 kts | 206° |
| 2026-05-04 12:23 | 44.66258 | 4.85522 | 20871 ft | 315 kts | 206° |
| 2026-05-04 12:24 | 44.64320 | 4.84158 | 20541 ft | 313 kts | 207° |
| 2026-05-04 12:24 | 44.62382 | 4.82800 | 20180 ft | 311 kts | 206° |
| 2026-05-04 12:24 | 44.60437 | 4.81430 | 19839 ft | 311 kts | 207° |
| 2026-05-04 12:24 | 44.58509 | 4.80077 | 19505 ft | 311 kts | 207° |
| 2026-05-04 12:25 | 44.56564 | 4.78712 | 19160 ft | 312 kts | 207° |
| 2026-05-04 12:25 | 44.54520 | 4.77673 | 18815 ft | 312 kts | 194° |
| 2026-05-04 12:25 | 44.52399 | 4.77146 | 18476 ft | 314 kts | 191° |
| 2026-05-04 12:25 | 44.50223 | 4.76646 | 18138 ft | 317 kts | 191° |
| 2026-05-04 12:26 | 44.48052 | 4.76147 | 17796 ft | 320 kts | 191° |
| 2026-05-04 12:26 | 44.45839 | 4.75635 | 17448 ft | 322 kts | 191° |
| 2026-05-04 12:26 | 44.43625 | 4.75120 | 17100 ft | 324 kts | 191° |
| 2026-05-04 12:26 | 44.41417 | 4.74608 | 16735 ft | 325 kts | 191° |
| 2026-05-04 12:27 | 44.39186 | 4.74087 | 16367 ft | 320 kts | 191° |
| 2026-05-04 12:27 | 44.37009 | 4.73574 | 16033 ft | 313 kts | 191° |
| 2026-05-04 12:27 | 44.34887 | 4.73082 | 15714 ft | 308 kts | 191° |
| 2026-05-04 12:27 | 44.32788 | 4.72584 | 15366 ft | 308 kts | 191° |
| 2026-05-04 12:28 | 44.30656 | 4.72086 | 15038 ft | 308 kts | 191° |
| 2026-05-04 12:28 | 44.28582 | 4.71597 | 14731 ft | 306 kts | 190° |
| 2026-05-04 12:28 | 44.26468 | 4.71101 | 14381 ft | 306 kts | 191° |
| 2026-05-04 12:28 | 44.24361 | 4.70605 | 14045 ft | 305 kts | 191° |
| 2026-05-04 12:29 | 44.22285 | 4.70106 | 13706 ft | 304 kts | 191° |
| 2026-05-04 12:29 | 44.20200 | 4.69627 | 13387 ft | 302 kts | 191° |
| 2026-05-04 12:29 | 44.18117 | 4.69139 | 13057 ft | 303 kts | 190° |
| 2026-05-04 12:29 | 44.16037 | 4.68649 | 12729 ft | 302 kts | 191° |
| 2026-05-04 12:30 | 44.13971 | 4.68163 | 12400 ft | 301 kts | 191° |
| 2026-05-04 12:30 | 44.11887 | 4.67918 | 12011 ft | 303 kts | 177° |
| 2026-05-04 12:30 | 44.09868 | 4.68750 | 11763 ft | 302 kts | 161° |
| 2026-05-04 12:30 | 44.07922 | 4.69843 | 11404 ft | 299 kts | 161° |
| 2026-05-04 12:31 | 44.06047 | 4.70917 | 11071 ft | 282 kts | 160° |
| 2026-05-04 12:31 | 44.04268 | 4.71936 | 10754 ft | 277 kts | 161° |
| 2026-05-04 12:31 | 44.02502 | 4.72934 | 10486 ft | 270 kts | 161° |
| 2026-05-04 12:31 | 44.00758 | 4.73922 | 10185 ft | 266 kts | 161° |
| 2026-05-04 12:32 | 43.99050 | 4.74884 | 9901 ft | 262 kts | 161° |
| 2026-05-04 12:32 | 43.95717 | 4.76767 | 9385 ft | 255 kts | 161° |
| 2026-05-04 12:32 | 43.94082 | 4.77688 | 9134 ft | 251 kts | 160° |
| 2026-05-04 12:33 | 43.92469 | 4.78596 | 8874 ft | 248 kts | 160° |
| 2026-05-04 12:33 | 43.90890 | 4.79482 | 8630 ft | 245 kts | 160° |
| 2026-05-04 12:33 | 43.89316 | 4.80366 | 8386 ft | 242 kts | 160° |
| 2026-05-04 12:33 | 43.87784 | 4.81226 | 8143 ft | 239 kts | 160° |
| 2026-05-04 12:34 | 43.86245 | 4.82088 | 7904 ft | 237 kts | 160° |
| 2026-05-04 12:34 | 43.84715 | 4.82944 | 7663 ft | 236 kts | 160° |
| 2026-05-04 12:34 | 43.83202 | 4.83794 | 7425 ft | 234 kts | 160° |
| 2026-05-04 12:34 | 43.81686 | 4.84637 | 7192 ft | 233 kts | 160° |
| 2026-05-04 12:35 | 43.80183 | 4.85476 | 6956 ft | 231 kts | 160° |
| 2026-05-04 12:35 | 43.78727 | 4.86295 | 6800 ft | 226 kts | 159° |
| 2026-05-04 12:35 | 43.77265 | 4.87119 | 6651 ft | 223 kts | 159° |
| 2026-05-04 12:35 | 43.75841 | 4.87919 | 6500 ft | 222 kts | 159° |
| 2026-05-04 12:36 | 43.74404 | 4.88724 | 6340 ft | 222 kts | 159° |
| 2026-05-04 12:36 | 43.72965 | 4.89526 | 6184 ft | 224 kts | 159° |
| 2026-05-04 12:36 | 43.71513 | 4.90337 | 6034 ft | 225 kts | 159° |
| 2026-05-04 12:36 | 43.70049 | 4.91162 | 5780 ft | 232 kts | 158° |
| 2026-05-04 12:37 | 43.68538 | 4.92029 | 5454 ft | 235 kts | 158° |
| 2026-05-04 12:37 | 43.67048 | 4.92886 | 5118 ft | 231 kts | 158° |
| 2026-05-04 12:37 | 43.65583 | 4.93724 | 4800 ft | 226 kts | 158° |
| 2026-05-04 12:37 | 43.64167 | 4.94527 | 4508 ft | 215 kts | 157° |
| 2026-05-04 12:38 | 43.62814 | 4.95295 | 4226 ft | 203 kts | 156° |
| 2026-05-04 12:38 | 43.61659 | 4.96277 | 4064 ft | 185 kts | 140° |
| 2026-05-04 12:38 | 43.60717 | 4.97442 | 4025 ft | 180 kts | 140° |
| 2026-05-04 12:38 | 43.59768 | 4.98575 | 4008 ft | 182 kts | 138° |
| 2026-05-04 12:39 | 43.58904 | 4.99851 | 4035 ft | 183 kts | 136° |
| 2026-05-04 12:39 | 43.57973 | 5.01095 | 3895 ft | 192 kts | 137° |
| 2026-05-04 12:39 | 43.56998 | 5.02441 | 3610 ft | 203 kts | 135° |
| 2026-05-04 12:39 | 43.56030 | 5.03837 | 3267 ft | 198 kts | 135° |
| 2026-05-04 12:40 | 43.55098 | 5.05165 | 2938 ft | 191 kts | 134° |
| 2026-05-04 12:40 | 43.54196 | 5.06456 | 2642 ft | 182 kts | 134° |
| 2026-05-04 12:40 | 43.53336 | 5.07691 | 2390 ft | 172 kts | 134° |
| 2026-05-04 12:40 | 43.52531 | 5.08840 | 2171 ft | 164 kts | 134° |
| 2026-05-04 12:41 | 43.51761 | 5.09943 | 1949 ft | 156 kts | 133° |
| 2026-05-04 12:41 | 43.51014 | 5.11011 | 1768 ft | 157 kts | 133° |
| 2026-05-04 12:41 | 43.50260 | 5.12077 | 1560 ft | 150 kts | 133° |
| 2026-05-04 12:41 | 43.49593 | 5.13038 | 1376 ft | 128 kts | 133° |
| 2026-05-04 12:42 | 43.49011 | 5.13867 | 1290 ft | 121 kts | 135° |
| 2026-05-04 12:42 | 43.48389 | 5.14730 | 1116 ft | 129 kts | 134° |
| 2026-05-04 12:42 | 43.47778 | 5.15654 | 895 ft | 131 kts | 132° |
| 2026-05-04 12:42 | 43.47165 | 5.16565 | 706 ft | 131 kts | 134° |
| 2026-05-04 12:43 | 43.46540 | 5.17474 | 573 ft | 130 kts | 134° |
| 2026-05-04 12:43 | 43.45894 | 5.18363 | 375 ft | 131 kts | 134° |
| 2026-05-04 12:43 | 43.45256 | 5.19259 | 223 ft | 129 kts | 135° |
| 2026-05-04 12:43 | 43.44634 | 5.20131 | 60 ft | 127 kts | 133° |
| 2026-05-04 12:44 | 43.44079 | 5.20919 | 25 ft | 89 kts | 134° |
| 2026-05-04 12:44 | 43.43760 | 5.21369 | 35 ft | 45 kts | 134° |
| 2026-05-04 12:44 | 43.43583 | 5.21625 | 42 ft | 35 kts | 134° |
| 2026-05-04 12:44 | 43.43412 | 5.21868 | 49 ft | 30 kts | 135° |
| 2026-05-04 12:45 | 43.43333 | 5.22070 | 53 ft | 19 kts | 92° |
| 2026-05-04 12:45 | 43.43338 | 5.22220 | 56 ft | 10 kts | 71° |
| 2026-05-04 12:45 | 43.43389 | 5.22277 | 55 ft | 9 kts | 12° |
| 2026-05-04 12:45 | 43.43456 | 5.22254 | 54 ft | 11 kts | 328° |
| 2026-05-04 12:46 | 43.43532 | 5.22192 | 52 ft | 13 kts | 330° |
| 2026-05-04 12:46 | 43.43591 | 5.22147 | 50 ft | 9 kts | 328° |
| 2026-05-04 12:46 | 43.43653 | 5.22099 | 48 ft | 9 kts | 347° |
| 2026-05-04 12:46 | 43.43705 | 5.22152 | 48 ft | 9 kts | 56° |
| 2026-05-04 12:47 | 43.43735 | 5.22197 | 48 ft | 4 kts | 39° |
| 2026-05-04 12:47 | 43.43757 | 5.22184 | 47 ft | 5 kts | 313° |
| 2026-05-04 12:47 | 43.43785 | 5.22144 | 46 ft | 2 kts | 313° |
| 2026-05-04 12:47 | 43.43787 | 5.22141 | 46 ft | 0 kts | 313° |